Time;durP1;ratioP1;P1;durP2;ratioP2;P2;SDS_P1;SDS_P2;PMS_P1;PMS_P2;Temp;Humidity;BMP_temperature;BMP_pressure;BME280_temperature;BME280_humidity;BME280_pressure;Samples;Min_cycle;Max_cycle;Signal;HPM_P1;HPM_P2
2022/04/24 00:00:58;;;;;;;7.93;5.40;;;9.50;99.90;;;;;;4977833;28;20212;-73
2022/04/24 00:03:25;;;;;;;6.83;5.20;;;9.50;99.90;;;;;;4979681;28;20244;-72
2022/04/24 00:05:53;;;;;;;6.97;5.57;;;9.50;99.90;;;;;;4965027;28;20251;-73
2022/04/24 00:08:20;;;;;;;8.40;5.90;;;9.50;99.90;;;;;;4980827;28;20224;-72
2022/04/24 00:10:46;;;;;;;7.23;5.63;;;9.50;99.90;;;;;;4971068;28;20578;-73
2022/04/24 00:13:13;;;;;;;6.90;5.30;;;9.50;99.90;;;;;;4961765;28;20276;-72
2022/04/24 00:15:40;;;;;;;7.73;5.60;;;9.50;99.90;;;;;;4961668;28;20219;-72
2022/04/24 00:18:07;;;;;;;7.20;6.07;;;9.50;99.90;;;;;;4961460;28;20293;-73
2022/04/24 00:20:34;;;;;;;6.83;5.03;;;9.40;99.90;;;;;;4961913;28;20291;-72
2022/04/24 00:23:03;;;;;;;6.13;5.43;;;9.50;99.90;;;;;;4969780;28;20204;-71
2022/04/24 00:25:29;;;;;;;6.30;5.50;;;9.40;99.90;;;;;;4976263;28;20232;-72
2022/04/24 00:27:56;;;;;;;7.10;6.07;;;9.40;99.90;;;;;;4964737;28;21340;-72
2022/04/24 00:30:23;;;;;;;8.00;5.90;;;9.40;99.90;;;;;;4961303;28;20236;-71
2022/04/24 00:32:50;;;;;;;6.60;5.90;;;9.40;99.90;;;;;;4961958;28;20220;-72
2022/04/24 00:35:17;;;;;;;6.67;5.83;;;9.40;99.90;;;;;;4967155;28;20580;-72
2022/04/24 00:37:43;;;;;;;10.33;5.73;;;9.40;99.90;;;;;;4961377;28;20223;-72
2022/04/24 00:40:13;;;;;;;6.23;5.63;;;9.40;99.90;;;;;;4960453;28;20239;-75
2022/04/24 00:42:40;;;;;;;7.13;5.87;;;9.30;99.90;;;;;;4971602;28;20252;-73
2022/04/24 00:45:07;;;;;;;8.07;6.33;;;9.40;99.90;;;;;;4962952;28;21130;-71
2022/04/24 00:47:34;;;;;;;8.20;6.07;;;9.30;99.90;;;;;;4961199;28;20233;-73
2022/04/24 00:50:01;;;;;;;6.77;5.33;;;9.30;99.90;;;;;;4960153;28;20216;-73
2022/04/24 00:52:28;;;;;;;7.67;6.43;;;9.30;99.90;;;;;;4963656;28;20240;-72
2022/04/24 00:54:55;;;;;;;7.90;5.93;;;9.30;99.90;;;;;;4961968;28;20227;-72
2022/04/24 00:57:23;;;;;;;7.47;6.63;;;9.30;99.90;;;;;;4969384;28;20240;-73
2022/04/24 00:59:50;;;;;;;7.10;6.40;;;9.20;99.90;;;;;;4979791;28;20217;-71
2022/04/24 01:02:17;;;;;;;9.03;6.53;;;9.30;99.90;;;;;;4971012;28;20256;-72
2022/04/24 01:04:44;;;;;;;7.07;6.27;;;9.20;99.90;;;;;;4968776;28;20320;-72
2022/04/24 01:07:11;;;;;;;9.07;6.60;;;9.20;99.90;;;;;;4963670;28;20216;-72
2022/04/24 01:09:38;;;;;;;7.03;6.23;;;9.20;99.90;;;;;;4959847;28;20248;-72
2022/04/24 01:12:07;;;;;;;6.90;6.20;;;9.30;99.90;;;;;;4971066;28;20251;-72
2022/04/24 01:14:36;;;;;;;9.97;7.30;;;9.30;99.90;;;;;;4975828;28;20209;-73
2022/04/24 01:17:05;;;;;;;9.43;7.57;;;9.30;99.90;;;;;;4961204;28;20231;-72
2022/04/24 01:19:32;;;;;;;9.27;7.80;;;9.30;99.90;;;;;;4961600;28;20662;-72
2022/04/24 01:22:00;;;;;;;10.47;8.83;;;9.30;99.90;;;;;;4961475;28;20272;-72
2022/04/24 01:24:29;;;;;;;9.30;8.30;;;9.20;99.90;;;;;;4961592;28;20249;-72
2022/04/24 01:26:56;;;;;;;11.97;10.03;;;9.30;99.90;;;;;;4961343;28;20206;-72
2022/04/24 01:29:23;;;;;;;12.80;10.40;;;9.20;99.90;;;;;;4974287;28;20289;-71
2022/04/24 01:31:51;;;;;;;13.60;10.40;;;9.10;99.90;;;;;;4959656;28;20210;-71
2022/04/24 01:34:19;;;;;;;14.80;10.90;;;9.10;99.90;;;;;;4967958;28;20259;-72
2022/04/24 01:36:46;;;;;;;15.20;11.50;;;9.00;99.90;;;;;;4960694;28;20667;-72
2022/04/24 01:39:15;;;;;;;15.47;12.20;;;9.00;99.90;;;;;;4960470;28;20205;-72
2022/04/24 01:41:43;;;;;;;17.27;13.63;;;9.00;99.90;;;;;;4963921;28;20220;-72
2022/04/24 01:44:10;;;;;;;19.70;13.20;;;8.90;99.90;;;;;;4964952;28;20237;-72
2022/04/24 01:46:36;;;;;;;18.43;12.43;;;8.80;99.90;;;;;;4962308;28;20245;-71
2022/04/24 01:49:04;;;;;;;18.17;11.77;;;8.80;99.90;;;;;;4971264;28;20288;-72
2022/04/24 01:51:31;;;;;;;17.00;12.17;;;8.70;99.90;;;;;;4960547;28;20300;-72
2022/04/24 01:53:58;;;;;;;20.10;13.47;;;8.70;99.90;;;;;;4964860;28;20214;-71
2022/04/24 01:56:26;;;;;;;16.20;12.50;;;8.70;99.90;;;;;;4960509;28;20296;-72
2022/04/24 01:58:53;;;;;;;17.53;12.50;;;8.70;99.90;;;;;;4978663;28;20623;-71
2022/04/24 02:01:20;;;;;;;18.47;13.33;;;8.60;99.90;;;;;;4976946;28;20220;-71
2022/04/24 02:03:47;;;;;;;17.00;12.97;;;8.60;99.90;;;;;;4970739;28;20228;-73
2022/04/24 02:06:13;;;;;;;15.83;12.73;;;8.60;99.90;;;;;;4975616;28;20540;-73
2022/04/24 02:08:40;;;;;;;17.63;12.30;;;8.60;99.90;;;;;;4967480;28;20273;-72
2022/04/24 02:11:08;;;;;;;15.40;11.93;;;8.60;99.90;;;;;;4959056;28;20213;-72
2022/04/24 02:13:37;;;;;;;18.00;13.50;;;8.60;99.90;;;;;;4969226;28;20295;-72
2022/04/24 02:16:05;;;;;;;17.63;12.67;;;8.60;99.90;;;;;;4959942;28;20698;-73
2022/04/24 02:18:33;;;;;;;17.23;11.97;;;8.60;99.90;;;;;;4969342;28;20211;-72
2022/04/24 02:21:00;;;;;;;20.47;12.70;;;8.60;99.90;;;;;;4963853;28;20734;-73
2022/04/24 02:23:27;;;;;;;20.03;12.97;;;8.60;99.90;;;;;;4959203;28;20209;-72
2022/04/24 02:25:54;;;;;;;19.13;12.27;;;8.60;99.90;;;;;;4960790;28;20223;-73
2022/04/24 02:28:21;;;;;;;17.97;12.47;;;8.60;99.90;;;;;;4963840;28;20225;-73
2022/04/24 02:30:50;;;;;;;19.03;12.30;;;8.60;99.90;;;;;;4967081;28;20263;-73
2022/04/24 02:33:16;;;;;;;15.73;12.00;;;8.60;99.90;;;;;;4958970;28;20617;-72
2022/04/24 02:35:43;;;;;;;19.50;11.57;;;8.60;99.90;;;;;;4967516;28;20217;-72
2022/04/24 02:38:10;;;;;;;15.30;10.73;;;8.50;99.90;;;;;;4958719;28;20214;-72
2022/04/24 02:40:37;;;;;;;15.37;11.47;;;8.50;99.90;;;;;;4958464;28;20333;-71
2022/04/24 02:43:04;;;;;;;15.00;11.17;;;8.50;99.90;;;;;;4957944;28;20643;-72
2022/04/24 02:45:31;;;;;;;13.37;10.90;;;8.40;99.90;;;;;;4958624;28;20237;-73
2022/04/24 02:48:01;;;;;;;14.53;10.67;;;8.40;99.90;;;;;;4959209;28;20281;-73
2022/04/24 02:50:28;;;;;;;15.50;11.80;;;8.40;99.90;;;;;;4959258;28;20241;-72
2022/04/24 02:52:56;;;;;;;13.83;10.50;;;8.40;99.90;;;;;;4960669;28;20367;-72
2022/04/24 02:55:25;;;;;;;15.67;11.00;;;8.40;99.90;;;;;;4957694;28;20280;-72
2022/04/24 02:57:52;;;;;;;13.50;10.53;;;8.40;99.90;;;;;;4963177;28;20213;-72
2022/04/24 03:00:22;;;;;;;16.20;10.83;;;8.40;99.90;;;;;;4974512;28;20264;-72
2022/04/24 03:02:50;;;;;;;13.67;10.13;;;8.40;99.90;;;;;;4957858;28;20213;-73
2022/04/24 03:05:20;;;;;;;14.20;10.80;;;8.40;99.90;;;;;;4961435;28;20243;-73
2022/04/24 03:07:47;;;;;;;13.47;10.30;;;8.40;99.90;;;;;;4972552;28;20636;-71
2022/04/24 03:10:16;;;;;;;15.67;10.50;;;8.40;99.90;;;;;;4958267;28;20268;-72
2022/04/24 03:12:43;;;;;;;13.23;10.23;;;8.30;99.90;;;;;;4964859;28;20244;-73
2022/04/24 03:15:13;;;;;;;18.87;10.20;;;8.30;99.90;;;;;;4968534;28;20686;-73
2022/04/24 03:17:40;;;;;;;14.33;9.93;;;8.40;99.90;;;;;;4975647;28;20223;-72
2022/04/24 03:20:09;;;;;;;18.00;10.53;;;8.30;99.90;;;;;;4961827;28;20633;-72
2022/04/24 03:22:37;;;;;;;14.70;9.97;;;8.30;99.90;;;;;;4959512;28;20770;-72
2022/04/24 03:25:06;;;;;;;13.90;9.53;;;8.30;99.90;;;;;;4975772;28;20209;-72
2022/04/24 03:27:34;;;;;;;10.93;9.10;;;8.30;99.90;;;;;;4963569;28;20209;-71
2022/04/24 03:30:01;;;;;;;15.20;10.10;;;8.30;99.90;;;;;;4958850;28;20315;-72
2022/04/24 03:32:31;;;;;;;12.80;9.70;;;8.30;99.90;;;;;;4959123;28;20722;-72
2022/04/24 03:34:58;;;;;;;14.33;10.17;;;8.30;99.90;;;;;;4972195;28;20208;-71
2022/04/24 03:37:25;;;;;;;12.13;9.50;;;8.30;99.90;;;;;;4968857;28;20208;-72
2022/04/24 03:39:53;;;;;;;15.40;9.90;;;8.30;99.90;;;;;;4964199;28;20233;-71
2022/04/24 03:42:20;;;;;;;14.20;10.43;;;8.30;99.90;;;;;;4966208;28;20228;-71
2022/04/24 03:44:47;;;;;;;13.07;9.53;;;8.30;99.90;;;;;;4958406;28;20237;-72
2022/04/24 03:47:14;;;;;;;15.67;9.87;;;8.30;99.90;;;;;;4967558;28;20625;-72
2022/04/24 03:49:42;;;;;;;13.53;9.83;;;8.30;99.90;;;;;;4970367;28;20312;-72
2022/04/24 03:52:11;;;;;;;11.40;9.13;;;8.30;99.90;;;;;;4967996;28;20245;-72
2022/04/24 03:54:38;;;;;;;10.93;9.13;;;8.30;99.90;;;;;;4971095;28;20879;-71
2022/04/24 03:57:07;;;;;;;13.40;9.33;;;8.30;99.90;;;;;;4958852;28;20619;-72
2022/04/24 03:59:34;;;;;;;12.87;8.97;;;8.30;99.90;;;;;;4958718;28;20562;-73
2022/04/24 04:02:00;;;;;;;13.53;9.97;;;8.20;99.90;;;;;;4958053;28;20292;-71
2022/04/24 04:04:28;;;;;;;12.10;8.93;;;8.30;99.90;;;;;;4965626;28;20263;-73
2022/04/24 04:06:54;;;;;;;13.63;9.50;;;8.30;99.90;;;;;;4969290;28;20275;-72
2022/04/24 04:09:22;;;;;;;11.33;8.90;;;8.30;99.90;;;;;;4961834;28;20248;-71
2022/04/24 04:11:49;;;;;;;12.80;9.23;;;8.40;99.90;;;;;;4962181;28;20613;-71
2022/04/24 04:14:17;;;;;;;12.53;8.87;;;8.40;99.90;;;;;;4962096;28;20216;-73
2022/04/24 04:16:44;;;;;;;13.10;9.47;;;8.40;99.90;;;;;;4962695;28;20227;-72
2022/04/24 04:19:11;;;;;;;11.77;8.73;;;8.50;99.90;;;;;;4958594;28;20229;-73
2022/04/24 04:21:38;;;;;;;13.90;10.03;;;8.50;99.90;;;;;;4956733;28;20213;-71
2022/04/24 04:24:08;;;;;;;11.10;8.47;;;8.50;99.90;;;;;;4970918;28;20304;-71
2022/04/24 04:26:35;;;;;;;13.83;9.83;;;8.60;99.90;;;;;;4967964;28;20244;-72
2022/04/24 04:29:01;;;;;;;12.57;9.40;;;8.60;99.90;;;;;;4963857;28;20683;-73
2022/04/24 04:31:30;;;;;;;15.67;9.73;;;8.60;99.90;;;;;;4960142;28;20210;-72
2022/04/24 04:33:57;;;;;;;15.57;9.10;;;8.60;99.90;;;;;;4963244;28;20666;-72
2022/04/24 04:36:23;;;;;;;11.73;8.77;;;8.70;99.90;;;;;;4962966;28;20232;-72
2022/04/24 04:38:50;;;;;;;11.93;9.17;;;8.70;99.90;;;;;;4960835;28;20213;-70
2022/04/24 04:41:17;;;;;;;11.23;8.57;;;8.70;99.90;;;;;;4961519;28;20240;-72
2022/04/24 04:43:44;;;;;;;12.20;8.83;;;8.80;99.90;;;;;;4974371;28;20213;-72
2022/04/24 04:46:11;;;;;;;13.37;8.77;;;8.80;99.90;;;;;;4963906;28;20307;-71
2022/04/24 04:48:39;;;;;;;12.83;8.90;;;8.80;99.90;;;;;;4962345;28;20545;-71
2022/04/24 04:51:06;;;;;;;10.97;8.50;;;8.80;99.90;;;;;;4961484;28;20292;-72
2022/04/24 04:53:34;;;;;;;12.17;8.47;;;8.80;99.90;;;;;;4969608;28;20296;-72
2022/04/24 04:56:01;;;;;;;12.67;8.83;;;8.70;99.90;;;;;;4969180;28;20221;-72
2022/04/24 04:58:28;;;;;;;12.30;8.90;;;8.80;99.90;;;;;;4964917;28;20217;-70
2022/04/24 05:00:56;;;;;;;13.47;8.53;;;8.90;99.90;;;;;;4979113;28;20766;-72
2022/04/24 05:03:23;;;;;;;14.27;8.40;;;8.90;99.90;;;;;;4964306;28;20582;-71
2022/04/24 05:05:51;;;;;;;11.27;8.70;;;8.90;99.90;;;;;;4966728;28;20240;-71
2022/04/24 05:08:18;;;;;;;11.47;8.80;;;9.00;99.90;;;;;;4971998;28;20303;-72
2022/04/24 05:10:45;;;;;;;11.83;8.67;;;9.20;99.90;;;;;;4959332;28;20249;-71
2022/04/24 05:13:12;;;;;;;13.73;8.13;;;9.20;99.90;;;;;;4975139;28;20212;-73
2022/04/24 05:15:39;;;;;;;11.27;8.30;;;9.30;99.90;;;;;;4968785;28;20308;-69
2022/04/24 05:18:06;;;;;;;15.93;9.70;;;9.40;99.90;;;;;;4963652;28;20752;-69
2022/04/24 05:20:32;;;;;;;12.50;8.30;;;9.50;99.90;;;;;;4963336;28;20201;-68
2022/04/24 05:23:08;;;;;;;12.27;8.87;;;9.60;99.90;;;;;;4962010;28;20695;-68
2022/04/24 05:25:36;;;;;;;13.60;8.27;;;9.60;99.90;;;;;;4961173;28;20228;-68
2022/04/24 05:28:03;;;;;;;12.70;8.60;;;9.70;99.90;;;;;;4962322;28;20202;-69
2022/04/24 05:30:30;;;;;;;11.77;7.50;;;9.80;99.90;;;;;;4963936;28;20233;-69
2022/04/24 05:32:57;;;;;;;10.00;7.90;;;9.90;99.90;;;;;;4966581;28;20599;-68
2022/04/24 05:35:24;;;;;;;11.83;8.70;;;10.00;99.90;;;;;;4958240;28;20237;-69
2022/04/24 05:37:52;;;;;;;10.17;7.97;;;10.10;99.90;;;;;;4962698;28;20220;-68
2022/04/24 05:40:20;;;;;;;10.47;7.33;;;10.20;99.90;;;;;;4965805;28;20233;-68
2022/04/24 05:42:48;;;;;;;10.93;7.87;;;10.20;99.90;;;;;;4962775;28;20221;-70
2022/04/24 05:45:18;;;;;;;9.97;7.67;;;10.20;99.90;;;;;;4962494;28;20304;-69
2022/04/24 05:47:45;;;;;;;11.63;7.17;;;10.30;99.90;;;;;;4974725;28;20485;-68
2022/04/24 05:50:13;;;;;;;10.00;7.50;;;10.30;99.90;;;;;;4979254;28;20324;-69
2022/04/24 05:52:39;;;;;;;9.73;7.53;;;10.30;99.90;;;;;;4967564;28;20284;-69
2022/04/24 05:55:07;;;;;;;10.60;7.43;;;10.30;99.90;;;;;;4964649;28;20209;-68
2022/04/24 05:57:36;;;;;;;10.23;7.90;;;10.30;99.90;;;;;;4967335;28;20665;-69
2022/04/24 06:00:04;;;;;;;13.63;8.30;;;10.40;99.90;;;;;;4978326;28;20236;-69
2022/04/24 06:02:31;;;;;;;8.87;7.10;;;10.40;99.90;;;;;;4974303;28;20205;-69
2022/04/24 06:04:57;;;;;;;13.70;6.83;;;10.50;99.90;;;;;;4967231;28;20205;-68
2022/04/24 06:07:24;;;;;;;9.13;6.63;;;10.50;99.90;;;;;;4963119;28;20229;-69
2022/04/24 06:09:51;;;;;;;8.30;6.60;;;10.60;99.90;;;;;;4978288;28;20234;-69
2022/04/24 06:12:18;;;;;;;9.37;6.97;;;10.70;99.90;;;;;;4957520;28;20280;-68
2022/04/24 06:14:46;;;;;;;12.43;6.93;;;10.80;99.90;;;;;;4964258;28;20208;-69
2022/04/24 06:17:13;;;;;;;9.90;7.20;;;10.80;99.90;;;;;;4958278;28;20231;-68
2022/04/24 06:19:40;;;;;;;9.33;7.33;;;10.90;99.90;;;;;;4958367;28;20649;-70
2022/04/24 06:22:07;;;;;;;9.83;7.03;;;10.90;99.90;;;;;;4957670;28;20240;-68
2022/04/24 06:24:34;;;;;;;8.90;6.73;;;10.90;99.90;;;;;;4960069;28;20613;-68
2022/04/24 06:27:01;;;;;;;9.67;7.10;;;10.90;99.90;;;;;;4966492;28;20260;-67
2022/04/24 06:29:28;;;;;;;11.00;6.73;;;11.00;99.90;;;;;;4971081;28;20235;-67
2022/04/24 06:31:56;;;;;;;9.83;6.90;;;11.10;99.90;;;;;;4961961;28;20265;-68
2022/04/24 06:34:23;;;;;;;9.43;6.87;;;11.10;99.90;;;;;;4961929;28;20242;-67
2022/04/24 06:36:50;;;;;;;9.70;7.17;;;11.10;99.90;;;;;;4961234;28;20224;-69
2022/04/24 06:39:16;;;;;;;11.20;7.50;;;11.20;99.90;;;;;;4967152;28;20230;-70
2022/04/24 06:41:43;;;;;;;9.33;7.30;;;11.20;99.90;;;;;;4968068;28;20225;-69
2022/04/24 06:44:10;;;;;;;11.47;6.70;;;11.30;99.90;;;;;;4967934;28;20251;-69
2022/04/24 06:46:37;;;;;;;8.10;6.53;;;11.40;99.90;;;;;;4961309;28;20317;-70
2022/04/24 06:49:05;;;;;;;11.77;6.77;;;11.50;99.90;;;;;;4964783;28;20205;-69
2022/04/24 06:51:32;;;;;;;8.73;6.73;;;11.50;99.90;;;;;;4963495;28;20269;-69
2022/04/24 06:53:59;;;;;;;10.77;7.90;;;11.60;99.90;;;;;;4962293;28;20297;-70
2022/04/24 06:56:26;;;;;;;13.20;7.43;;;11.70;99.90;;;;;;4969410;28;20244;-70
2022/04/24 06:58:53;;;;;;;7.17;5.80;;;11.80;99.90;;;;;;4971664;28;20217;-69
2022/04/24 07:01:21;;;;;;;9.90;6.97;;;11.80;99.90;;;;;;4966071;28;20215;-70
2022/04/24 07:03:48;;;;;;;8.63;6.87;;;11.90;99.90;;;;;;4967150;28;20260;-69
2022/04/24 07:06:16;;;;;;;8.17;6.97;;;11.90;99.90;;;;;;4967386;28;20291;-68
2022/04/24 07:08:43;;;;;;;9.80;7.70;;;12.00;99.90;;;;;;4977481;28;20262;-69
2022/04/24 07:11:10;;;;;;;9.87;7.30;;;12.10;99.90;;;;;;4967235;28;20238;-69
2022/04/24 07:13:38;;;;;;;9.60;7.50;;;12.10;99.90;;;;;;4967735;28;20699;-69
2022/04/24 07:16:06;;;;;;;12.53;7.93;;;12.00;99.90;;;;;;4962106;28;20211;-68
2022/04/24 07:18:33;;;;;;;8.37;7.47;;;12.20;99.90;;;;;;4967494;28;20221;-69
2022/04/24 07:21:00;;;;;;;8.43;7.20;;;12.10;99.90;;;;;;4970528;28;20228;-68
2022/04/24 07:23:29;;;;;;;8.07;7.10;;;12.20;99.90;;;;;;4969582;28;20211;-70
2022/04/24 07:25:56;;;;;;;10.07;7.90;;;12.20;99.90;;;;;;4976408;28;20624;-71
2022/04/24 07:28:23;;;;;;;9.93;7.90;;;12.30;99.90;;;;;;4955457;28;20226;-69
2022/04/24 07:30:49;;;;;;;8.43;7.50;;;12.40;99.90;;;;;;4958025;28;20320;-69
2022/04/24 07:33:16;;;;;;;9.20;7.30;;;12.50;99.90;;;;;;4968804;28;20304;-69
2022/04/24 07:35:43;;;;;;;8.80;7.37;;;12.50;99.90;;;;;;4965957;28;20212;-69
2022/04/24 07:38:11;;;;;;;8.77;7.27;;;12.70;99.90;;;;;;4957139;28;20330;-70
2022/04/24 07:40:40;;;;;;;8.23;7.37;;;12.80;99.90;;;;;;4960159;28;20319;-71
2022/04/24 07:43:08;;;;;;;9.27;6.53;;;12.90;99.90;;;;;;4957841;28;20209;-71
2022/04/24 07:45:37;;;;;;;8.97;6.20;;;13.00;99.90;;;;;;4965841;28;20239;-69
2022/04/24 07:48:05;;;;;;;8.23;6.83;;;13.10;99.90;;;;;;4964768;28;20565;-68
2022/04/24 07:50:35;;;;;;;7.50;6.70;;;13.20;99.90;;;;;;4966504;28;20219;-70
2022/04/24 07:53:02;;;;;;;7.07;5.63;;;13.20;99.90;;;;;;4964823;28;20213;-68
2022/04/24 07:55:30;;;;;;;8.67;5.57;;;13.10;99.90;;;;;;4976077;28;20208;-69
2022/04/24 07:57:59;;;;;;;7.37;5.80;;;13.10;99.90;;;;;;4974726;28;20204;-70
2022/04/24 08:00:29;;;;;;;6.80;5.70;;;13.10;99.90;;;;;;4975498;28;20204;-68
2022/04/24 08:02:57;;;;;;;6.40;5.73;;;13.00;99.90;;;;;;4968534;28;20243;-70
2022/04/24 08:05:26;;;;;;;8.30;5.90;;;13.10;99.90;;;;;;4973726;28;20205;-69
2022/04/24 08:07:53;;;;;;;7.17;6.10;;;13.10;99.90;;;;;;4962267;28;20284;-69
2022/04/24 08:10:21;;;;;;;7.57;6.03;;;13.10;99.90;;;;;;4969232;28;20260;-70
2022/04/24 08:12:48;;;;;;;7.30;5.90;;;13.30;99.90;;;;;;4962760;28;20300;-69
2022/04/24 08:15:17;;;;;;;6.50;5.67;;;13.50;99.90;;;;;;4972426;28;20259;-69
2022/04/24 08:17:45;;;;;;;7.50;5.87;;;13.90;99.90;;;;;;4973346;28;20305;-70
2022/04/24 08:20:13;;;;;;;6.13;5.43;;;14.30;99.90;;;;;;4980925;28;20201;-69
2022/04/24 08:22:41;;;;;;;6.23;5.63;;;14.60;99.90;;;;;;4971841;28;20237;-69
2022/04/24 08:25:10;;;;;;;8.70;5.83;;;14.80;99.90;;;;;;4980356;28;20642;-70
2022/04/24 08:27:37;;;;;;;9.27;6.27;;;14.90;99.90;;;;;;4975940;28;20650;-70
2022/04/24 08:30:05;;;;;;;7.60;5.50;;;15.00;99.90;;;;;;4961608;28;20229;-68
2022/04/24 08:32:34;;;;;;;6.97;5.60;;;15.10;99.90;;;;;;4960444;28;20300;-71
2022/04/24 08:35:01;;;;;;;7.27;6.57;;;15.10;99.90;;;;;;4970319;28;20672;-69
2022/04/24 08:37:28;;;;;;;6.93;6.10;;;15.10;99.90;;;;;;4960610;28;20237;-71
2022/04/24 08:39:56;;;;;;;7.03;6.33;;;15.00;99.90;;;;;;4967646;28;20287;-70
2022/04/24 08:42:23;;;;;;;6.67;5.93;;;14.90;99.90;;;;;;4965258;28;20213;-69
2022/04/24 08:44:50;;;;;;;6.47;5.87;;;14.80;99.90;;;;;;4960338;28;20217;-70
2022/04/24 08:47:18;;;;;;;5.57;4.80;;;14.90;99.90;;;;;;4966669;28;20214;-70
2022/04/24 08:49:47;;;;;;;5.30;4.80;;;15.10;99.90;;;;;;4945657;28;20213;-70
2022/04/24 08:52:15;;;;;;;4.87;4.37;;;15.30;99.90;;;;;;4967001;28;20302;-69
2022/04/24 08:54:45;;;;;;;3.53;3.23;;;15.40;99.90;;;;;;4967095;28;20213;-70
2022/04/24 08:57:13;;;;;;;3.63;3.33;;;15.50;99.00;;;;;;4962068;28;20213;-70
2022/04/24 08:59:40;;;;;;;5.33;4.17;;;15.50;97.90;;;;;;4968199;28;20300;-69
2022/04/24 09:02:09;;;;;;;4.17;3.60;;;15.40;97.50;;;;;;4960043;28;20252;-68
2022/04/24 09:04:36;;;;;;;4.90;3.73;;;15.20;97.30;;;;;;4964052;28;21173;-69
2022/04/24 09:07:07;;;;;;;4.87;4.07;;;15.20;97.60;;;;;;4971016;28;20251;-69
2022/04/24 09:09:40;;;;;;;4.40;3.90;;;15.20;97.50;;;;;;4968060;28;20257;-70
2022/04/24 09:12:08;;;;;;;3.83;3.47;;;15.20;97.50;;;;;;4970206;28;20603;-69
2022/04/24 09:14:35;;;;;;;4.37;3.97;;;15.50;98.00;;;;;;4972900;28;20279;-69
2022/04/24 09:17:05;;;;;;;4.27;3.87;;;16.00;97.70;;;;;;4974166;28;20217;-71
2022/04/24 09:19:32;;;;;;;3.90;3.40;;;16.30;96.50;;;;;;4981092;28;20757;-71
2022/04/24 09:22:06;;;;;;;3.47;3.17;;;16.50;95.60;;;;;;4979898;28;20313;-70
2022/04/24 09:24:40;;;;;;;5.07;3.50;;;16.70;94.90;;;;;;4979546;28;20300;-69
2022/04/24 09:27:08;;;;;;;3.83;3.53;;;16.90;94.90;;;;;;4961527;28;20455;-70
2022/04/24 09:29:35;;;;;;;3.85;3.50;;;17.10;92.80;;;;;;4978223;28;20825;-69
2022/04/24 09:32:02;;;;;;;3.75;2.78;;;17.10;91.80;;;;;;4966365;28;20781;-69
2022/04/24 09:34:31;;;;;;;5.15;3.30;;;17.10;92.10;;;;;;4972368;28;20252;-71
2022/04/24 09:37:03;;;;;;;2.47;2.27;;;17.30;91.20;;;;;;4973071;28;20220;-70
2022/04/24 09:39:32;;;;;;;3.10;2.80;;;17.50;90.30;;;;;;4968456;28;20215;-71
2022/04/24 09:42:03;;;;;;;4.15;2.92;;;17.70;90.20;;;;;;4972492;28;20240;-70
2022/04/24 09:44:40;;;;;;;3.13;2.92;;;18.00;87.50;;;;;;4975361;28;20279;-70
2022/04/24 09:47:08;;;;;;;2.60;2.40;;;17.90;84.50;;;;;;4969031;28;20307;-71
2022/04/24 09:49:37;;;;;;;3.95;3.28;;;17.80;84.60;;;;;;4969561;28;20209;-71
2022/04/24 09:52:08;;;;;;;2.58;2.38;;;17.90;84.60;;;;;;4961319;28;20229;-70
2022/04/24 09:54:38;;;;;;;2.45;2.25;;;18.10;83.70;;;;;;4968993;28;20216;-71
2022/04/24 09:57:05;;;;;;;2.38;2.17;;;18.20;82.10;;;;;;4970729;28;20240;-70
2022/04/24 09:59:33;;;;;;;2.45;2.10;;;18.30;79.90;;;;;;4975109;28;20292;-71
2022/04/24 10:02:01;;;;;;;2.10;1.88;;;18.10;78.70;;;;;;4977535;28;20200;-71
2022/04/24 10:04:28;;;;;;;3.33;2.03;;;18.00;78.10;;;;;;4967885;28;20265;-70
2022/04/24 10:06:56;;;;;;;2.25;2.03;;;17.80;78.10;;;;;;4978733;28;20616;-70
2022/04/24 10:09:25;;;;;;;2.15;1.95;;;17.60;78.70;;;;;;4961080;28;20209;-70
2022/04/24 10:11:54;;;;;;;3.05;2.08;;;17.40;78.70;;;;;;4959399;28;20231;-71
2022/04/24 10:14:22;;;;;;;2.70;2.47;;;17.20;78.40;;;;;;4945366;28;20227;-70
2022/04/24 10:17:11;;;;;;;2.50;2.30;;;16.90;78.90;;;;;;4969108;28;20205;-69
2022/04/24 10:20:10;;;;;;;2.47;2.28;;;16.70;80.20;;;;;;4959881;28;20212;-69
2022/04/24 10:22:39;;;;;;;2.30;2.10;;;16.40;80.90;;;;;;4973807;28;20548;-70
2022/04/24 10:25:07;;;;;;;2.20;2.00;;;16.30;81.40;;;;;;4966245;28;20236;-72
2022/04/24 10:27:43;;;;;;;2.30;2.10;;;16.20;81.90;;;;;;4965228;28;20216;-71
2022/04/24 10:30:14;;;;;;;2.77;2.40;;;16.10;82.40;;;;;;4961774;28;20283;-70
2022/04/24 10:32:44;;;;;;;3.80;2.70;;;16.10;82.80;;;;;;4961828;28;20329;-70
2022/04/24 10:35:19;;;;;;;3.93;2.73;;;16.10;83.30;;;;;;4964047;28;20202;-69
2022/04/24 10:37:48;;;;;;;3.77;2.43;;;16.20;83.50;;;;;;4966884;28;20673;-71
2022/04/24 10:40:17;;;;;;;4.23;2.90;;;16.50;83.10;;;;;;4958583;28;20661;-69
2022/04/24 10:42:45;;;;;;;2.30;2.10;;;16.70;83.00;;;;;;4976548;28;20296;-70
2022/04/24 10:45:14;;;;;;;4.93;3.05;;;16.80;81.90;;;;;;4977924;28;20204;-70
2022/04/24 10:47:52;;;;;;;2.15;1.92;;;16.80;81.60;;;;;;4967207;28;20216;-71
2022/04/24 10:50:20;;;;;;;3.93;2.83;;;16.90;81.20;;;;;;4958747;28;20209;-70
2022/04/24 10:52:49;;;;;;;2.40;1.92;;;17.00;81.50;;;;;;4958454;28;20347;-69
2022/04/24 10:55:18;;;;;;;3.28;2.47;;;17.20;80.30;;;;;;4959930;28;20209;-68
2022/04/24 10:57:54;;;;;;;2.97;2.50;;;17.20;78.90;;;;;;4958589;28;20233;-69
2022/04/24 11:00:23;;;;;;;2.60;2.40;;;17.20;78.90;;;;;;4961349;28;20201;-67
2022/04/24 11:02:52;;;;;;;4.75;2.13;;;17.30;79.60;;;;;;4961444;28;20251;-69
2022/04/24 11:05:21;;;;;;;2.30;2.10;;;17.40;78.70;;;;;;4961011;28;20622;-70
2022/04/24 11:08:00;;;;;;;2.63;1.90;;;17.40;77.60;;;;;;4964025;28;20212;-71
2022/04/24 11:10:27;;;;;;;3.83;2.60;;;17.30;76.20;;;;;;4958727;28;20209;-70
2022/04/24 11:12:56;;;;;;;2.42;2.05;;;17.40;76.20;;;;;;4958672;28;20820;-71
2022/04/24 11:15:23;;;;;;;2.30;2.10;;;17.60;75.10;;;;;;4965805;28;20209;-70
2022/04/24 11:17:51;;;;;;;2.05;1.83;;;17.60;73.90;;;;;;4958724;28;20241;-70
2022/04/24 11:20:19;;;;;;;2.90;2.10;;;17.50;73.60;;;;;;4962423;28;20268;-70
2022/04/24 11:22:50;;;;;;;2.25;2.05;;;17.40;73.40;;;;;;4958846;28;20629;-68
2022/04/24 11:25:19;;;;;;;2.55;2.08;;;17.50;74.30;;;;;;4976164;28;20303;-69
2022/04/24 11:27:50;;;;;;;2.47;2.28;;;18.00;75.20;;;;;;4963171;28;20292;-69
2022/04/24 11:30:20;;;;;;;2.42;2.22;;;18.50;73.30;;;;;;4959044;28;20212;-69
2022/04/24 11:32:58;;;;;;;2.35;2.15;;;19.10;71.50;;;;;;4969755;28;20589;-70
2022/04/24 11:35:28;;;;;;;2.58;2.20;;;19.60;69.80;;;;;;4975410;28;20639;-71
2022/04/24 11:37:56;;;;;;;2.40;2.17;;;19.80;68.70;;;;;;4959631;28;20631;-71
2022/04/24 11:40:23;;;;;;;2.70;2.50;;;19.90;67.70;;;;;;4959460;28;20328;-73
2022/04/24 11:42:50;;;;;;;2.88;2.67;;;20.00;66.40;;;;;;4971971;28;20205;-72
2022/04/24 11:50:51;;;;;;;2.35;2.15;;;20.50;63.80;;;;;;4959781;28;20566;-72
2022/04/24 11:53:20;;;;;;;2.90;2.60;;;20.70;63.10;;;;;;4966123;28;20296;-70
2022/04/24 11:56:03;;;;;;;3.17;2.88;;;20.60;62.50;;;;;;4958621;28;20209;-71
2022/04/24 11:58:34;;;;;;;3.00;2.50;;;20.70;63.00;;;;;;4961115;28;20208;-71
2022/04/24 12:01:04;;;;;;;2.40;2.20;;;20.90;62.60;;;;;;4966980;28;20248;-72
2022/04/24 12:03:32;;;;;;;2.65;2.45;;;21.10;61.20;;;;;;4964059;28;20209;-71
2022/04/24 12:06:00;;;;;;;4.20;3.60;;;21.00;61.20;;;;;;4961427;28;20235;-71
2022/04/24 12:08:28;;;;;;;3.60;2.50;;;20.90;61.10;;;;;;4977934;28;20737;-72
2022/04/24 12:10:55;;;;;;;2.83;2.47;;;20.90;61.10;;;;;;4961593;28;20276;-72
2022/04/24 12:13:23;;;;;;;2.72;2.10;;;20.80;61.00;;;;;;4966103;28;20614;-72
2022/04/24 12:15:52;;;;;;;2.95;2.25;;;20.70;61.30;;;;;;4972170;28;20220;-73
2022/04/24 12:18:24;;;;;;;3.45;2.20;;;20.60;60.60;;;;;;4965779;28;20259;-73
2022/04/24 12:20:52;;;;;;;3.05;2.75;;;20.50;60.40;;;;;;4977663;28;20315;-71
2022/04/24 12:23:20;;;;;;;3.67;2.63;;;20.30;60.10;;;;;;4972298;28;20213;-71
2022/04/24 12:25:48;;;;;;;2.30;2.10;;;20.30;60.90;;;;;;4970301;28;20210;-72
2022/04/24 12:28:31;;;;;;;2.45;2.25;;;20.40;61.00;;;;;;4959798;28;20222;-72
2022/04/24 12:31:01;;;;;;;3.55;2.30;;;20.40;60.20;;;;;;4954107;28;20213;-71
2022/04/24 12:33:30;;;;;;;2.53;2.30;;;20.40;59.70;;;;;;4965024;28;20201;-71
2022/04/24 12:36:07;;;;;;;2.60;2.10;;;20.30;60.10;;;;;;4959056;28;20206;-73
2022/04/24 12:38:34;;;;;;;2.55;2.35;;;20.40;60.30;;;;;;4958062;28;20210;-72
2022/04/24 12:41:01;;;;;;;2.60;2.33;;;20.50;60.80;;;;;;4964495;28;20419;-71
2022/04/24 12:43:30;;;;;;;3.03;2.72;;;20.40;59.90;;;;;;4964954;28;20566;-71
2022/04/24 12:45:58;;;;;;;2.90;2.65;;;20.40;61.00;;;;;;4960412;28;20213;-71
2022/04/24 12:48:26;;;;;;;3.35;2.40;;;20.50;61.20;;;;;;4973989;28;20308;-72
2022/04/24 12:50:55;;;;;;;3.22;2.67;;;20.60;61.20;;;;;;4962490;28;20746;-72
2022/04/24 12:53:23;;;;;;;3.40;3.10;;;20.60;60.60;;;;;;4964088;28;20736;-71
2022/04/24 12:55:51;;;;;;;2.70;2.50;;;20.50;60.60;;;;;;4959965;28;20300;-72